Time;durP1;ratioP1;P1;durP2;ratioP2;P2;SDS_P1;SDS_P2;PMS_P1;PMS_P2;Temp;Humidity;BMP_temperature;BMP_pressure;BME280_temperature;BME280_humidity;BME280_pressure;Samples;Min_cycle;Max_cycle;Signal;HPM_P1;HPM_P2
2022/05/05 00:01:40;;;;;;;16.30;14.80;;;;;;;;;;4970415;28;20203;-74
2022/05/05 00:04:06;;;;;;;16.37;14.67;;;;;;;;;;4970162;28;20184;-74
2022/05/05 00:06:33;;;;;;;16.03;14.53;;;;;;;;;;4955263;28;20209;-74
2022/05/05 00:08:59;;;;;;;16.47;14.87;;;;;;;;;;4986426;28;20180;-74
2022/05/05 00:14:28;;;;;;;15.47;13.97;;;;;;;;;;4968823;28;20232;-74
2022/05/05 00:17:06;;;;;;;15.00;13.50;;;;;;;;;;4971125;28;20306;-74
2022/05/05 00:19:34;;;;;;;14.63;13.23;;;;;;;;;;4968641;28;20173;-74
2022/05/05 00:22:00;;;;;;;15.03;13.63;;;;;;;;;;4972407;28;20190;-74
2022/05/05 00:24:26;;;;;;;16.27;14.27;;;;;;;;;;4971773;28;20199;-74
2022/05/05 00:26:53;;;;;;;18.30;13.67;;;;;;;;;;4972373;28;20208;-74
2022/05/05 00:29:19;;;;;;;15.00;13.53;;;;;;;;;;4971876;28;20188;-74
2022/05/05 00:31:46;;;;;;;14.97;13.47;;;;;;;;;;4967509;28;20664;-74
2022/05/05 00:34:12;;;;;;;17.30;15.60;;;;;;;;;;4969199;28;20438;-75
2022/05/05 00:36:39;;;;;;;15.97;14.27;;;;;;;;;;4971372;28;20599;-75
2022/05/05 00:39:06;;;;;;;15.30;13.70;;;;;;;;;;4972141;28;20519;-75
2022/05/05 00:41:36;;;;;;;13.83;12.53;;;;;;;;;;4971347;28;20226;-75
2022/05/05 00:44:04;;;;;;;15.07;13.67;;;;;;;;;;4969398;28;20184;-75
2022/05/05 00:46:30;;;;;;;13.47;12.17;;;;;;;;;;4987487;28;20208;-74
2022/05/05 00:48:56;;;;;;;15.47;13.87;;;;;;;;;;4972025;28;20306;-74
2022/05/05 00:51:23;;;;;;;13.57;12.27;;;;;;;;;;4971299;28;20285;-75
2022/05/05 00:53:49;;;;;;;14.97;13.40;;;;;;;;;;4965211;28;20268;-74
2022/05/05 00:56:16;;;;;;;15.47;13.87;;;;;;;;;;4969212;28;20196;-75
2022/05/05 00:58:46;;;;;;;13.93;12.53;;;;;;;;;;4971411;28;20176;-75
2022/05/05 01:01:13;;;;;;;14.13;12.83;;;;;;;;;;4967337;28;20271;-75
2022/05/05 01:03:39;;;;;;;13.90;12.60;;;;;;;;;;4969725;28;20210;-75
2022/05/05 01:06:06;;;;;;;14.77;13.27;;;;;;;;;;4971953;28;20216;-75
2022/05/05 01:08:36;;;;;;;14.43;13.10;;;;;;;;;;4969440;28;20204;-75
2022/05/05 01:11:03;;;;;;;12.10;10.97;;;;;;;;;;4968813;28;20640;-75
2022/05/05 01:13:30;;;;;;;12.07;10.97;;;;;;;;;;4968017;28;20180;-75
2022/05/05 01:15:56;;;;;;;13.93;11.90;;;;;;;;;;4971804;28;20228;-75
2022/05/05 01:18:23;;;;;;;14.40;12.73;;;;;;;;;;4976584;28;20184;-74
2022/05/05 01:20:50;;;;;;;14.30;12.90;;;;;;;;;;4970749;28;20185;-75
2022/05/05 01:23:16;;;;;;;13.53;12.23;;;;;;;;;;4975137;28;20659;-75
2022/05/05 01:28:29;;;;;;;12.40;11.23;;;;;;;;;;4973834;28;20177;-74
2022/05/05 01:30:56;;;;;;;13.23;11.93;;;;;;;;;;4972828;28;20251;-75
2022/05/05 01:33:24;;;;;;;15.03;13.53;;;;;;;;;;4971442;28;20180;-75
2022/05/05 01:35:52;;;;;;;16.53;14.90;;;;;;;;;;4973663;28;20216;-75
2022/05/05 01:38:19;;;;;;;15.10;13.60;;;;;;;;;;4973559;28;20688;-75
2022/05/05 01:40:46;;;;;;;16.90;15.20;;;;;;;;;;4972639;28;20287;-74
2022/05/05 01:43:13;;;;;;;17.10;15.23;;;;;;;;;;4971676;28;20196;-74
2022/05/05 01:45:39;;;;;;;15.40;13.83;;;;;;;;;;4969585;28;20672;-75
2022/05/05 01:48:06;;;;;;;16.63;14.90;;;;;;;;;;4974165;28;20606;-75
2022/05/05 01:50:32;;;;;;;19.67;16.60;;;;;;;;;;4970811;28;20277;-74
2022/05/05 01:52:59;;;;;;;16.90;15.20;;;;;;;;;;4974492;28;20218;-74
2022/05/05 01:55:26;;;;;;;19.40;17.40;;;;;;;;;;4975955;28;20259;-75
2022/05/05 01:57:52;;;;;;;18.67;16.87;;;;;;;;;;4973433;28;20796;-75
2022/05/05 02:00:20;;;;;;;22.27;17.67;;;;;;;;;;4969931;28;20564;-75
2022/05/05 02:02:46;;;;;;;18.93;17.03;;;;;;;;;;4976199;28;20769;-75
2022/05/05 02:05:13;;;;;;;18.57;16.80;;;;;;;;;;4975283;28;20191;-75
2022/05/05 02:07:39;;;;;;;19.37;17.40;;;;;;;;;;4974837;28;20181;-75
2022/05/05 02:10:06;;;;;;;19.30;17.40;;;;;;;;;;4974129;28;20196;-74
2022/05/05 02:12:35;;;;;;;22.67;20.47;;;;;;;;;;4972609;28;20208;-75
2022/05/05 02:15:11;;;;;;;20.83;18.67;;;;;;;;;;4964799;28;20703;-74
2022/05/05 02:17:38;;;;;;;23.80;20.90;;;;;;;;;;4969132;28;20263;-74
2022/05/05 02:20:05;;;;;;;19.37;17.50;;;;;;;;;;4971733;28;20177;-74
2022/05/05 02:22:32;;;;;;;22.20;19.93;;;;;;;;;;4972738;28;20185;-74
2022/05/05 02:24:59;;;;;;;21.80;19.60;;;;;;;;;;4971674;28;20196;-74
2022/05/05 02:27:25;;;;;;;20.97;18.77;;;;;;;;;;4973878;28;20556;-75
2022/05/05 02:29:52;;;;;;;18.67;16.67;;;;;;;;;;4972721;28;20192;-74
2022/05/05 02:32:19;;;;;;;20.10;18.10;;;;;;;;;;4971380;28;20203;-74
2022/05/05 02:34:45;;;;;;;19.03;17.10;;;;;;;;;;4973710;28;20185;-75
2022/05/05 02:39:57;;;;;;;22.60;20.33;;;;;;;;;;4971208;28;20259;-75
2022/05/05 02:42:24;;;;;;;23.27;20.73;;;;;;;;;;4974692;28;20188;-75
2022/05/05 02:44:50;;;;;;;20.53;18.43;;;;;;;;;;4971487;28;20184;-75
2022/05/05 02:47:16;;;;;;;19.33;16.30;;;;;;;;;;4974585;28;20211;-75
2022/05/05 02:49:42;;;;;;;18.07;16.17;;;;;;;;;;4973685;28;20180;-75
2022/05/05 02:52:09;;;;;;;18.83;16.93;;;;;;;;;;4973430;28;20211;-75
2022/05/05 02:54:47;;;;;;;20.23;16.17;;;;;;;;;;4973313;28;20267;-75
2022/05/05 02:57:14;;;;;;;17.40;15.70;;;;;;;;;;4968582;28;20212;-75
2022/05/05 02:59:40;;;;;;;19.47;17.53;;;;;;;;;;4973115;28;20584;-75
2022/05/05 03:02:06;;;;;;;21.70;19.47;;;;;;;;;;4974043;28;20192;-75
2022/05/05 03:04:33;;;;;;;20.77;18.57;;;;;;;;;;4973275;28;20607;-75
2022/05/05 03:06:59;;;;;;;21.70;19.60;;;;;;;;;;4971688;28;20215;-75
2022/05/05 03:09:25;;;;;;;23.87;21.27;;;;;;;;;;4957602;28;20212;-74
2022/05/05 03:11:51;;;;;;;19.80;17.60;;;;;;;;;;4962161;28;20209;-75
2022/05/05 03:14:18;;;;;;;23.13;20.80;;;;;;;;;;4974103;28;20645;-75
2022/05/05 03:16:44;;;;;;;21.50;19.30;;;;;;;;;;4987580;28;20220;-75
2022/05/05 03:19:10;;;;;;;21.60;19.40;;;;;;;;;;4974014;28;20223;-75
2022/05/05 03:21:36;;;;;;;22.63;20.23;;;;;;;;;;4973724;28;20247;-75
2022/05/05 03:24:03;;;;;;;24.63;22.13;;;;;;;;;;4970236;28;20192;-75
2022/05/05 03:26:29;;;;;;;20.37;18.30;;;;;;;;;;4973370;28;20230;-75
2022/05/05 03:28:56;;;;;;;23.67;20.97;;;;;;;;;;4973668;28;20185;-75
2022/05/05 03:31:22;;;;;;;21.03;18.83;;;;;;;;;;4974334;28;20239;-75
2022/05/05 03:33:48;;;;;;;24.30;21.70;;;;;;;;;;4967383;28;20264;-75
2022/05/05 03:36:14;;;;;;;21.83;19.60;;;;;;;;;;4972676;28;20200;-75
2022/05/05 03:38:40;;;;;;;23.00;20.63;;;;;;;;;;4973544;28;20177;-75
2022/05/05 03:41:06;;;;;;;26.07;23.23;;;;;;;;;;4973895;28;20184;-75
2022/05/05 03:43:33;;;;;;;24.20;21.43;;;;;;;;;;4972956;28;20251;-75
2022/05/05 03:45:59;;;;;;;24.00;21.60;;;;;;;;;;4987484;28;20231;-75
2022/05/05 03:48:26;;;;;;;23.30;20.47;;;;;;;;;;4973929;28;20657;-75
2022/05/05 03:50:52;;;;;;;24.63;21.03;;;;;;;;;;4973386;28;20180;-74
2022/05/05 03:53:18;;;;;;;23.73;21.30;;;;;;;;;;4972350;28;20253;-75
2022/05/05 03:55:45;;;;;;;20.13;18.07;;;;;;;;;;4972045;28;20243;-75
2022/05/05 03:58:11;;;;;;;22.90;20.53;;;;;;;;;;4973146;28;20227;-75
2022/05/05 04:00:37;;;;;;;24.57;22.07;;;;;;;;;;4973049;28;20176;-75
2022/05/05 04:05:48;;;;;;;23.00;20.67;;;;;;;;;;4972218;28;20200;-75
2022/05/05 04:08:15;;;;;;;20.73;18.70;;;;;;;;;;4970752;28;20188;-75
2022/05/05 04:10:41;;;;;;;23.33;21.03;;;;;;;;;;4970168;28;20784;-75
2022/05/05 04:13:07;;;;;;;25.90;23.20;;;;;;;;;;4966072;28;20204;-75
2022/05/05 04:15:36;;;;;;;24.70;22.07;;;;;;;;;;4971138;28;20239;-75
2022/05/05 04:18:02;;;;;;;24.73;21.10;;;;;;;;;;4971964;28;20188;-75
2022/05/05 04:20:28;;;;;;;24.53;22.07;;;;;;;;;;4971684;28;20168;-75
2022/05/05 04:22:56;;;;;;;23.37;20.90;;;;;;;;;;4972292;28;20196;-75
2022/05/05 04:25:22;;;;;;;20.93;18.77;;;;;;;;;;4971013;28;20185;-75
2022/05/05 04:27:49;;;;;;;19.13;17.23;;;;;;;;;;4971813;28;20722;-74
2022/05/05 04:30:16;;;;;;;25.20;22.63;;;;;;;;;;4971879;28;20661;-75
2022/05/05 04:32:43;;;;;;;19.13;17.13;;;;;;;;;;4972702;28;20208;-74
2022/05/05 04:35:09;;;;;;;23.30;20.63;;;;;;;;;;4972588;28;20215;-74
2022/05/05 04:37:35;;;;;;;27.30;24.37;;;;;;;;;;4970576;28;20219;-75
2022/05/05 04:40:02;;;;;;;30.63;27.43;;;;;;;;;;4965379;28;20184;-74
2022/05/05 04:42:28;;;;;;;24.03;21.67;;;;;;;;;;4972492;28;20821;-74
2022/05/05 04:44:54;;;;;;;25.80;23.27;;;;;;;;;;4972669;28;20716;-74
2022/05/05 04:47:20;;;;;;;25.50;22.80;;;;;;;;;;4972297;28;20204;-75
2022/05/05 04:49:46;;;;;;;28.70;24.93;;;;;;;;;;4971433;28;20187;-74
2022/05/05 04:52:12;;;;;;;24.90;22.37;;;;;;;;;;4972250;28;20232;-74
2022/05/05 04:54:38;;;;;;;25.00;22.47;;;;;;;;;;4972036;28;20239;-75
2022/05/05 04:57:05;;;;;;;26.37;23.67;;;;;;;;;;4972575;28;20231;-74
2022/05/05 04:59:31;;;;;;;28.77;25.70;;;;;;;;;;4972131;28;20184;-74
2022/05/05 05:01:57;;;;;;;32.50;28.40;;;;;;;;;;4972618;28;20210;-75
2022/05/05 05:04:23;;;;;;;33.03;29.00;;;;;;;;;;4972164;28;20187;-74
2022/05/05 05:06:52;;;;;;;29.37;26.33;;;;;;;;;;4972082;28;20223;-74
2022/05/05 05:09:18;;;;;;;26.23;23.63;;;;;;;;;;4971491;28;20188;-75
2022/05/05 05:11:45;;;;;;;22.80;20.63;;;;;;;;;;4972011;28;20223;-74
2022/05/05 05:14:11;;;;;;;24.73;22.23;;;;;;;;;;4972381;28;20223;-74
2022/05/05 05:16:37;;;;;;;23.70;21.33;;;;;;;;;;4972296;28;20623;-74
2022/05/05 05:19:05;;;;;;;24.60;21.50;;;;;;;;;;4971026;28;20195;-74
2022/05/05 05:21:31;;;;;;;25.83;23.17;;;;;;;;;;4969811;28;20238;-74
2022/05/05 05:23:59;;;;;;;25.90;23.20;;;;;;;;;;4969238;28;20189;-74
2022/05/05 05:26:25;;;;;;;25.00;22.43;;;;;;;;;;4970791;28;20283;-75
2022/05/05 05:28:51;;;;;;;25.53;22.83;;;;;;;;;;4971276;28;20312;-78
2022/05/05 05:31:18;;;;;;;26.57;23.60;;;;;;;;;;4971966;28;20236;-82
2022/05/05 05:33:44;;;;;;;24.03;21.50;;;;;;;;;;4973753;28;20695;-78
2022/05/05 05:36:10;;;;;;;26.20;23.60;;;;;;;;;;4972890;28;20205;-78
2022/05/05 05:38:36;;;;;;;26.30;23.43;;;;;;;;;;4972671;28;20181;-76
2022/05/05 05:41:02;;;;;;;28.77;25.40;;;;;;;;;;4978456;28;20598;-75
2022/05/05 05:43:28;;;;;;;26.17;23.47;;;;;;;;;;4975975;28;20185;-77
2022/05/05 05:45:54;;;;;;;25.00;22.50;;;;;;;;;;4976516;28;20209;-78
2022/05/05 05:48:20;;;;;;;25.37;22.67;;;;;;;;;;4968240;28;20195;-79
2022/05/05 05:50:47;;;;;;;28.13;25.10;;;;;;;;;;4964219;28;20180;-79
2022/05/05 05:53:13;;;;;;;26.57;23.77;;;;;;;;;;4974594;28;20545;-79
2022/05/05 05:55:40;;;;;;;29.73;25.00;;;;;;;;;;4973573;28;20209;-79
2022/05/05 05:58:06;;;;;;;30.90;27.60;;;;;;;;;;4973636;28;20179;-79
2022/05/05 06:00:34;;;;;;;33.17;29.67;;;;;;;;;;4973182;28;20267;-79
2022/05/05 06:05:45;;;;;;;30.73;27.43;;;;;;;;;;4966544;28;20224;-79
2022/05/05 06:08:11;;;;;;;27.53;24.70;;;;;;;;;;4972164;28;20180;-78
2022/05/05 06:10:38;;;;;;;32.67;27.43;;;;;;;;;;4968034;28;20631;-76
2022/05/05 06:13:04;;;;;;;31.37;28.07;;;;;;;;;;4971004;28;20267;-76
2022/05/05 06:15:30;;;;;;;30.27;27.17;;;;;;;;;;4972840;28;20270;-76
2022/05/05 06:17:57;;;;;;;32.43;28.47;;;;;;;;;;4967479;28;20216;-77
2022/05/05 06:20:23;;;;;;;33.53;28.60;;;;;;;;;;4969173;28;20195;-76
2022/05/05 06:22:52;;;;;;;26.93;24.13;;;;;;;;;;4970234;28;20695;-76
2022/05/05 06:25:20;;;;;;;31.83;28.43;;;;;;;;;;4970647;28;20189;-76
2022/05/05 06:27:47;;;;;;;32.47;29.17;;;;;;;;;;4970893;28;20176;-77
2022/05/05 06:30:13;;;;;;;32.13;28.67;;;;;;;;;;4970561;28;20648;-77
2022/05/05 06:32:40;;;;;;;30.13;26.90;;;;;;;;;;4988064;28;20223;-77
2022/05/05 06:35:06;;;;;;;30.43;27.13;;;;;;;;;;4973407;28;20172;-77
2022/05/05 06:37:33;;;;;;;29.43;26.33;;;;;;;;;;4979867;28;20287;-77
2022/05/05 06:40:00;;;;;;;31.53;28.17;;;;;;;;;;4973288;28;20195;-77
2022/05/05 06:42:27;;;;;;;29.07;25.97;;;;;;;;;;4973674;28;20184;-77
2022/05/05 06:44:53;;;;;;;29.37;26.27;;;;;;;;;;4974951;28;20186;-77
2022/05/05 06:47:20;;;;;;;30.30;27.30;;;;;;;;;;4975197;28;20239;-77
2022/05/05 06:49:46;;;;;;;29.47;26.37;;;;;;;;;;4967971;28;20526;-77
2022/05/05 06:52:12;;;;;;;32.33;28.07;;;;;;;;;;4972276;28;20211;-77
2022/05/05 06:54:38;;;;;;;29.03;26.03;;;;;;;;;;4970555;28;20185;-77
2022/05/05 06:57:05;;;;;;;30.30;26.53;;;;;;;;;;4969361;28;20204;-76
2022/05/05 06:59:31;;;;;;;30.63;27.43;;;;;;;;;;4969644;28;20184;-76
2022/05/05 07:02:01;;;;;;;26.57;23.77;;;;;;;;;;4970351;28;20618;-75
2022/05/05 07:07:14;;;;;;;31.43;26.03;;;;;;;;;;4971918;28;20703;-77
2022/05/05 07:12:25;;;;;;;27.23;24.27;;;;;;;;;;4969060;28;20593;-77
2022/05/05 07:14:52;;;;;;;27.93;24.60;;;;;;;;;;4969153;28;20189;-76
2022/05/05 07:17:18;;;;;;;27.57;24.73;;;;;;;;;;4968099;28;20376;-76
2022/05/05 07:19:44;;;;;;;29.90;25.23;;;;;;;;;;4968940;28;20188;-76
2022/05/05 07:22:10;;;;;;;27.10;24.27;;;;;;;;;;4969921;28;20661;-77
2022/05/05 07:24:37;;;;;;;26.40;23.70;;;;;;;;;;4969308;28;20271;-77
2022/05/05 07:27:03;;;;;;;27.10;24.27;;;;;;;;;;4967220;28;20208;-77
2022/05/05 07:29:30;;;;;;;27.23;24.33;;;;;;;;;;4971029;28;20184;-77
2022/05/05 07:31:56;;;;;;;24.90;22.20;;;;;;;;;;4972153;28;20294;-76
2022/05/05 07:34:23;;;;;;;26.10;23.40;;;;;;;;;;4971159;28;20182;-76
2022/05/05 07:37:12;;;;;;;25.57;22.90;;;;;;;;;;4963985;28;20278;-77
2022/05/05 07:39:39;;;;;;;26.60;22.67;;;;;;;;;;4971173;28;20733;-77
2022/05/05 07:42:05;;;;;;;24.33;21.93;;;;;;;;;;4971236;28;20192;-77
2022/05/05 07:44:31;;;;;;;23.83;21.27;;;;;;;;;;4986173;28;20361;-76
2022/05/05 07:46:57;;;;;;;23.70;21.37;;;;;;;;;;4972516;28;20204;-76
2022/05/05 07:49:23;;;;;;;24.13;21.57;;;;;;;;;;4971543;28;20214;-76
2022/05/05 07:51:51;;;;;;;25.30;21.37;;;;;;;;;;4972370;28;20561;-76
2022/05/05 07:54:42;;;;;;;23.23;20.87;;;;;;;;;;4970147;28;20195;-75
2022/05/05 07:57:10;;;;;;;24.17;19.37;;;;;;;;;;4970862;28;20677;-76
2022/05/05 07:59:36;;;;;;;21.83;18.80;;;;;;;;;;4972228;28;20572;-76
2022/05/05 08:02:03;;;;;;;23.20;19.33;;;;;;;;;;4972143;28;20271;-76
2022/05/05 08:04:30;;;;;;;20.53;18.00;;;;;;;;;;4971067;28;20195;-76
2022/05/05 08:06:56;;;;;;;22.37;17.97;;;;;;;;;;4970628;28;20228;-76
2022/05/05 08:09:22;;;;;;;21.67;18.93;;;;;;;;;;4971964;28;20196;-76
2022/05/05 08:11:48;;;;;;;24.77;18.57;;;;;;;;;;4961723;28;20259;-76
2022/05/05 08:14:14;;;;;;;22.53;17.87;;;;;;;;;;4972204;28;20263;-76
2022/05/05 08:16:40;;;;;;;18.93;16.67;;;;;;;;;;4970989;28;20217;-76
2022/05/05 08:19:07;;;;;;;20.37;17.77;;;;;;;;;;4971651;28;20231;-76
2022/05/05 08:21:33;;;;;;;23.70;18.83;;;;;;;;;;4972253;28;20260;-76
2022/05/05 08:29:29;;;;;;;24.63;17.97;;;;;;;;;;4970182;28;20203;-76
2022/05/05 08:31:55;;;;;;;20.87;17.37;;;;;;;;;;4971455;28;20193;-78
2022/05/05 08:34:22;;;;;;;21.40;18.97;;;;;;;;;;4973191;28;20220;-75
2022/05/05 08:36:48;;;;;;;24.80;19.20;;;;;;;;;;4971347;28;20672;-74
2022/05/05 08:39:14;;;;;;;22.80;19.20;;;;;;;;;;4975367;28;20681;-74
2022/05/05 08:41:40;;;;;;;24.40;20.17;;;;;;;;;;4972347;28;20215;-76
2022/05/05 08:44:08;;;;;;;23.27;19.63;;;;;;;;;;4971426;28;20555;-74
2022/05/05 08:46:35;;;;;;;22.17;19.73;;;;;;;;;;4972739;28;20228;-74
2022/05/05 08:49:05;;;;;;;25.87;20.47;;;;;;;;;;4972156;28;20196;-73
2022/05/05 08:51:42;;;;;;;21.03;18.80;;;;;;;;;;4971641;28;20213;-75
2022/05/05 08:54:10;;;;;;;22.63;19.57;;;;;;;;;;4978343;28;20553;-76
2022/05/05 08:56:36;;;;;;;24.60;19.50;;;;;;;;;;4973134;28;20204;-77
2022/05/05 08:59:03;;;;;;;21.70;18.87;;;;;;;;;;4970044;28;20191;-77
2022/05/05 09:01:36;;;;;;;21.60;17.83;;;;;;;;;;4968140;28;20187;-76
2022/05/05 09:04:04;;;;;;;25.00;18.43;;;;;;;;;;4972371;28;20603;-78
2022/05/05 09:06:40;;;;;;;23.40;19.03;;;;;;;;;;4972093;28;20211;-78
2022/05/05 09:09:06;;;;;;;19.80;17.27;;;;;;;;;;4972156;28;20188;-78
2022/05/05 09:11:32;;;;;;;22.43;17.83;;;;;;;;;;4969912;28;20220;-78
2022/05/05 09:14:07;;;;;;;22.57;18.40;;;;;;;;;;4973132;28;20699;-77
2022/05/05 09:16:33;;;;;;;22.10;17.60;;;;;;;;;;4972658;28;20247;-78
2022/05/05 09:19:01;;;;;;;23.97;18.27;;;;;;;;;;4953521;28;20189;-78
2022/05/05 09:21:34;;;;;;;20.50;17.90;;;;;;;;;;4980583;28;20544;-77
2022/05/05 09:26:55;;;;;;;22.50;17.67;;;;;;;;;;4973359;28;20255;-74
2022/05/05 09:29:22;;;;;;;19.93;16.97;;;;;;;;;;4972290;28;20184;-78
2022/05/05 09:31:50;;;;;;;21.50;17.40;;;;;;;;;;4971578;28;20208;-78
2022/05/05 09:34:19;;;;;;;21.90;18.23;;;;;;;;;;4965353;28;20192;-76
2022/05/05 09:36:48;;;;;;;23.03;16.73;;;;;;;;;;4970488;28;20206;-77
2022/05/05 09:39:14;;;;;;;19.00;17.00;;;;;;;;;;4971267;28;20219;-78
2022/05/05 09:41:44;;;;;;;19.67;16.57;;;;;;;;;;4972426;28;20177;-78
2022/05/05 09:44:14;;;;;;;20.37;17.60;;;;;;;;;;4970569;28;20191;-78
2022/05/05 09:46:43;;;;;;;19.83;16.23;;;;;;;;;;4970300;28;20219;-77
2022/05/05 09:49:14;;;;;;;20.43;15.43;;;;;;;;;;4958715;28;20192;-78
2022/05/05 09:51:41;;;;;;;17.60;14.73;;;;;;;;;;4968686;28;20672;-79
2022/05/05 09:59:41;;;;;;;20.97;16.33;;;;;;;;;;4974510;28;20215;-80
2022/05/05 10:05:10;;;;;;;16.50;14.47;;;;;;;;;;4972077;28;20196;-79
2022/05/05 10:07:39;;;;;;;19.00;15.50;;;;;;;;;;4979287;28;20171;-79
2022/05/05 10:10:07;;;;;;;19.97;16.07;;;;;;;;;;4971850;28;20189;-78
2022/05/05 10:12:34;;;;;;;20.27;15.53;;;;;;;;;;4976129;28;20212;-77
2022/05/05 10:15:00;;;;;;;20.57;15.20;;;;;;;;;;4975545;28;20192;-75
2022/05/05 10:17:27;;;;;;;20.57;15.50;;;;;;;;;;4972657;28;20219;-77
2022/05/05 10:19:56;;;;;;;19.67;15.47;;;;;;;;;;4973004;28;20212;-75
2022/05/05 10:22:29;;;;;;;17.13;14.77;;;;;;;;;;4975392;28;20256;-75
2022/05/05 10:25:02;;;;;;;16.57;14.80;;;;;;;;;;4976527;28;20189;-77
2022/05/05 10:27:29;;;;;;;20.73;15.60;;;;;;;;;;4972447;28;20204;-75
2022/05/05 10:30:37;;;;;;;17.93;16.03;;;;;;;;;;4965142;28;20420;-76
2022/05/05 10:33:04;;;;;;;18.77;15.20;;;;;;;;;;4967642;28;20223;-77
2022/05/05 10:35:38;;;;;;;18.03;15.27;;;;;;;;;;4973651;28;20184;-74
2022/05/05 10:38:35;;;;;;;19.90;15.93;;;;;;;;;;4969657;28;20189;-75
2022/05/05 10:41:01;;;;;;;19.23;14.83;;;;;;;;;;4975156;28;20250;-75
2022/05/05 10:43:33;;;;;;;18.63;15.50;;;;;;;;;;4977785;28;20188;-74
2022/05/05 10:45:59;;;;;;;19.40;14.70;;;;;;;;;;4974707;28;20754;-75
2022/05/05 10:48:29;;;;;;;17.57;14.97;;;;;;;;;;4973019;28;20230;-74
2022/05/05 10:51:05;;;;;;;20.20;14.73;;;;;;;;;;4975384;28;20200;-74
2022/05/05 10:53:31;;;;;;;19.23;15.67;;;;;;;;;;4972940;28;20270;-74
2022/05/05 10:55:59;;;;;;;15.87;14.00;;;;;;;;;;4973676;28;20208;-74
2022/05/05 10:58:43;;;;;;;18.20;14.83;;;;;;;;;;4973910;28;20192;-75
2022/05/05 11:01:10;;;;;;;16.33;13.47;;;;;;;;;;4968495;28;20184;-76
2022/05/05 11:03:36;;;;;;;19.80;15.30;;;;;;;;;;4972341;28;20672;-76
2022/05/05 11:06:17;;;;;;;20.10;14.97;;;;;;;;;;4974525;28;20212;-76
2022/05/05 11:08:53;;;;;;;21.33;15.83;;;;;;;;;;4971782;28;20177;-76
2022/05/05 11:21:32;;;;;;;18.83;16.80;;;;;;;;;;4973950;28;20699;-77
2022/05/05 11:22:45;;;;;;;21.57;16.07;;;;;;;;;;4972709;28;20243;-80
2022/05/05 11:25:11;;;;;;;21.03;16.20;;;;;;;;;;4969230;28;20199;-78
2022/05/05 11:27:37;;;;;;;20.00;16.00;;;;;;;;;;4972089;28;20197;-80
2022/05/05 11:30:04;;;;;;;18.37;15.73;;;;;;;;;;4972603;28;20182;-80
2022/05/05 11:32:35;;;;;;;18.60;15.87;;;;;;;;;;4975360;28;20204;-80
2022/05/05 11:35:01;;;;;;;19.93;16.27;;;;;;;;;;4971370;28;20182;-79
2022/05/05 11:37:28;;;;;;;19.93;17.10;;;;;;;;;;4966979;28;20341;-80
2022/05/05 11:39:54;;;;;;;19.53;15.93;;;;;;;;;;4974795;28;20185;-80
2022/05/05 11:42:20;;;;;;;21.77;17.63;;;;;;;;;;4975491;28;20667;-76
2022/05/05 11:44:46;;;;;;;22.73;16.77;;;;;;;;;;4970487;28;20193;-75
2022/05/05 11:47:14;;;;;;;21.83;16.70;;;;;;;;;;4970916;28;20688;-75
2022/05/05 11:49:43;;;;;;;18.23;15.30;;;;;;;;;;4972206;28;20181;-75
2022/05/05 11:52:11;;;;;;;20.50;16.17;;;;;;;;;;4970614;28;20225;-76
2022/05/05 11:54:38;;;;;;;19.37;16.40;;;;;;;;;;4970597;28;20185;-75
2022/05/05 11:57:04;;;;;;;21.83;15.40;;;;;;;;;;4970787;28;20235;-75
2022/05/05 12:02:25;;;;;;;18.10;14.03;;;;;;;;;;4971305;28;20196;-75
2022/05/05 12:04:56;;;;;;;19.60;14.50;;;;;;;;;;4971006;28;20276;-75
2022/05/05 12:07:23;;;;;;;18.37;15.53;;;;;;;;;;4985230;28;20216;-75
2022/05/05 12:09:54;;;;;;;19.30;15.87;;;;;;;;;;4961432;28;20223;-75
2022/05/05 12:12:26;;;;;;;19.70;16.00;;;;;;;;;;4967787;28;21009;-75
2022/05/05 12:14:54;;;;;;;16.30;14.50;;;;;;;;;;4985977;28;20208;-75
2022/05/05 12:17:25;;;;;;;16.13;14.40;;;;;;;;;;4969958;28;20236;-75
2022/05/05 12:19:52;;;;;;;19.50;14.60;;;;;;;;;;4969459;28;20228;-75
2022/05/05 12:22:27;;;;;;;18.80;13.63;;;;;;;;;;4971796;28;20271;-75
2022/05/05 12:24:54;;;;;;;17.90;13.47;;;;;;;;;;4954416;28;20194;-75
2022/05/05 12:27:25;;;;;;;17.03;14.07;;;;;;;;;;4970182;28;20287;-74
2022/05/05 12:29:51;;;;;;;20.30;14.60;;;;;;;;;;4971099;28;20181;-75
2022/05/05 12:32:18;;;;;;;19.53;14.80;;;;;;;;;;4970181;28;20287;-74
2022/05/05 12:34:45;;;;;;;18.03;13.37;;;;;;;;;;4969478;28;20242;-75
2022/05/05 12:37:15;;;;;;;14.93;12.83;;;;;;;;;;4969488;28;20208;-75
2022/05/05 12:39:57;;;;;;;17.80;13.90;;;;;;;;;;4968792;28;20699;-74
2022/05/05 12:42:25;;;;;;;17.67;13.37;;;;;;;;;;4970025;28;20216;-75
2022/05/05 12:44:51;;;;;;;17.40;12.70;;;;;;;;;;4970029;28;20268;-75
2022/05/05 12:47:23;;;;;;;18.63;12.60;;;;;;;;;;4970184;28;20254;-75
2022/05/05 12:49:50;;;;;;;19.63;13.43;;;;;;;;;;4984928;28;20711;-75
2022/05/05 13:00:49;;;;;;;18.57;12.50;;;;;;;;;;4971819;28;20189;-75
2022/05/05 13:03:18;;;;;;;16.57;11.90;;;;;;;;;;4968561;28;20184;-74
2022/05/05 13:05:47;;;;;;;14.83;11.73;;;;;;;;;;4967844;28;20226;-77
2022/05/05 13:08:13;;;;;;;17.17;10.93;;;;;;;;;;4974141;28;20235;-75
2022/05/05 13:10:39;;;;;;;14.03;11.20;;;;;;;;;;4970754;28;20180;-75
2022/05/05 13:13:05;;;;;;;13.47;11.53;;;;;;;;;;4986057;28;20223;-74
2022/05/05 13:15:35;;;;;;;17.20;10.70;;;;;;;;;;4970449;28;20212;-75
2022/05/05 13:18:01;;;;;;;13.30;10.43;;;;;;;;;;4970778;28;20181;-75
2022/05/05 13:20:27;;;;;;;16.73;10.30;;;;;;;;;;4970322;28;20184;-78
2022/05/05 13:22:53;;;;;;;14.20;9.90;;;;;;;;;;4972894;28;20188;-76
2022/05/05 13:25:20;;;;;;;11.53;9.00;;;;;;;;;;4971890;28;20676;-75
2022/05/05 13:27:46;;;;;;;12.93;9.17;;;;;;;;;;4968884;28;21299;-75
2022/05/05 13:30:12;;;;;;;14.83;10.17;;;;;;;;;;4970387;28;20214;-75
2022/05/05 13:32:38;;;;;;;11.43;9.23;;;;;;;;;;4966160;28;20200;-75
2022/05/05 13:35:06;;;;;;;12.23;9.30;;;;;;;;;;4968057;28;20195;-74
2022/05/05 13:37:32;;;;;;;12.83;9.13;;;;;;;;;;4965563;28;20216;-76
2022/05/05 13:39:58;;;;;;;12.93;9.00;;;;;;;;;;4964951;28;20219;-76
2022/05/05 13:42:25;;;;;;;13.30;9.10;;;;;;;;;;4964936;28;20201;-75
2022/05/05 13:44:53;;;;;;;12.77;8.77;;;;;;;;;;4976448;28;20181;-75
2022/05/05 13:47:19;;;;;;;12.97;8.90;;;;;;;;;;4965464;28;20554;-75
2022/05/05 13:49:45;;;;;;;14.07;8.93;;;;;;;;;;4964020;28;20263;-75
2022/05/05 13:52:12;;;;;;;15.97;8.43;;;;;;;;;;4962464;28;21666;-75
2022/05/05 13:54:40;;;;;;;11.63;8.00;;;;;;;;;;4964893;28;20247;-75
2022/05/05 13:57:06;;;;;;;10.97;7.80;;;;;;;;;;4969585;28;20200;-75
2022/05/05 13:59:32;;;;;;;10.13;7.53;;;;;;;;;;4968181;28;20263;-75
2022/05/05 14:02:00;;;;;;;9.17;7.43;;;;;;;;;;4967712;28;20204;-74
2022/05/05 14:04:26;;;;;;;11.93;7.40;;;;;;;;;;4967803;28;20185;-75
2022/05/05 14:06:52;;;;;;;12.20;8.23;;;;;;;;;;4965739;28;20593;-75
2022/05/05 14:12:15;;;;;;;10.03;7.70;;;;;;;;;;4966872;28;20215;-74
2022/05/05 14:14:41;;;;;;;9.87;7.57;;;;;;;;;;4964964;28;20212;-74
2022/05/05 14:17:07;;;;;;;11.23;7.90;;;;;;;;;;4971880;28;20224;-75
2022/05/05 14:19:34;;;;;;;9.97;7.13;;;;;;;;;;4966155;28;20251;-78
2022/05/05 14:22:01;;;;;;;10.13;7.63;;;;;;;;;;4967561;28;20195;-77
2022/05/05 14:24:27;;;;;;;9.40;7.43;;;;;;;;;;4969872;28;20560;-77
2022/05/05 14:26:54;;;;;;;10.47;7.57;;;;;;;;;;4969348;28;20635;-77
2022/05/05 14:29:21;;;;;;;12.10;7.90;;;;;;;;;;4968099;28;20688;-77
2022/05/05 14:32:08;;;;;;;10.20;8.03;;;;;;;;;;4969962;28;20307;-76
2022/05/05 14:34:34;;;;;;;10.57;7.30;;;;;;;;;;4969345;28;20193;-75
2022/05/05 14:37:00;;;;;;;8.87;7.10;;;;;;;;;;4970130;28;20612;-79
2022/05/05 14:39:26;;;;;;;9.97;7.30;;;;;;;;;;4966682;28;20181;-75
2022/05/05 14:41:53;;;;;;;9.57;7.37;;;;;;;;;;4957948;28;20231;-75
2022/05/05 14:44:19;;;;;;;9.83;6.37;;;;;;;;;;4958213;28;20625;-76
2022/05/05 14:46:45;;;;;;;10.23;6.80;;;;;;;;;;4962608;28;20231;-75
2022/05/05 14:49:11;;;;;;;11.10;6.83;;;;;;;;;;4964372;28;20185;-75
2022/05/05 14:51:37;;;;;;;9.03;6.53;;;;;;;;;;4956566;28;22816;-75
2022/05/05 14:54:04;;;;;;;12.13;6.90;;;;;;;;;;4955229;28;20189;-75
2022/05/05 14:56:30;;;;;;;11.83;6.97;;;;;;;;;;4957469;28;20287;-75
2022/05/05 14:58:56;;;;;;;7.67;5.53;;;;;;;;;;4956733;28;20185;-76
2022/05/05 15:01:23;;;;;;;7.87;5.77;;;;;;;;;;4952858;28;20199;-74
2022/05/05 15:03:49;;;;;;;11.67;5.30;;;;;;;;;;4953742;28;20181;-75
2022/05/05 15:06:16;;;;;;;7.10;5.50;;;;;;;;;;4955989;28;20212;-75
2022/05/05 15:08:42;;;;;;;6.30;4.97;;;;;;;;;;4953734;28;20276;-76
2022/05/05 15:11:08;;;;;;;7.53;5.17;;;;;;;;;;4956394;28;20189;-75
2022/05/05 15:13:34;;;;;;;9.73;5.43;;;;;;;;;;4956360;28;20200;-75
2022/05/05 15:16:00;;;;;;;9.70;5.17;;;;;;;;;;4955539;28;20216;-75
2022/05/05 15:18:27;;;;;;;9.57;5.07;;;;;;;;;;4954850;28;20188;-74
2022/05/05 15:20:53;;;;;;;7.17;4.97;;;;;;;;;;4957809;28;20188;-75